createdAt,value
2018-06-25T00:02:25.266Z,11.60
2018-06-25T00:04:53.741Z,11.60
2018-06-25T00:07:22.159Z,11.60
2018-06-25T00:14:46.951Z,11.60
2018-06-25T00:19:43.653Z,11.70
2018-06-25T00:22:12.138Z,11.60
2018-06-25T00:24:41.142Z,11.70
2018-06-25T00:27:09.468Z,11.70
2018-06-25T00:29:37.560Z,11.70
2018-06-25T00:32:06.067Z,11.70
2018-06-25T00:34:34.346Z,11.70
2018-06-25T00:41:59.549Z,11.80
2018-06-25T00:46:56.101Z,11.80
2018-06-25T00:49:24.759Z,11.80
2018-06-25T00:51:53.238Z,11.80
2018-06-25T00:54:21.751Z,11.80
2018-06-25T00:59:29.282Z,11.80
2018-06-25T01:01:57.564Z,11.80
2018-06-25T01:04:26.101Z,11.70
2018-06-25T01:06:54.395Z,11.70
2018-06-25T01:09:24.025Z,11.70
2018-06-25T01:11:52.606Z,11.70
2018-06-25T01:16:49.004Z,11.80
2018-06-25T01:19:17.196Z,11.80
2018-06-25T01:21:45.420Z,11.80
2018-06-25T01:24:14.238Z,11.80
2018-06-25T01:26:42.589Z,11.80
2018-06-25T01:29:11.221Z,11.80
2018-06-25T01:31:40.249Z,11.80
2018-06-25T01:36:36.738Z,11.80
2018-06-25T01:39:07.325Z,11.80
2018-06-25T01:41:35.885Z,11.80
2018-06-25T01:44:04.361Z,11.80
2018-06-25T01:49:01.881Z,11.80
2018-06-25T01:51:30.199Z,11.80
2018-06-25T01:53:58.484Z,11.90
2018-06-25T01:56:26.985Z,11.90
2018-06-25T01:58:55.407Z,11.90
2018-06-25T02:01:23.802Z,11.80
2018-06-25T02:03:51.993Z,11.80
2018-06-25T02:06:20.791Z,11.80
2018-06-25T02:08:49.073Z,11.80
2018-06-25T02:11:17.463Z,11.80
2018-06-25T02:13:47.089Z,11.80
2018-06-25T02:16:15.521Z,11.80
2018-06-25T02:18:43.899Z,11.80
2018-06-25T02:21:12.303Z,11.80
2018-06-25T02:26:08.786Z,11.80
2018-06-25T02:28:36.982Z,11.70
2018-06-25T02:33:33.444Z,11.70
2018-06-25T02:36:01.772Z,11.70
2018-06-25T02:40:58.683Z,11.70
2018-06-25T02:43:27.091Z,11.70
2018-06-25T02:45:55.694Z,11.70
2018-06-25T02:48:24.076Z,11.80
2018-06-25T02:53:21.795Z,11.80
2018-06-25T03:00:46.172Z,11.80
2018-06-25T03:03:14.488Z,11.80
2018-06-25T03:08:10.442Z,11.80
2018-06-25T03:10:38.547Z,11.80
2018-06-25T03:15:35.051Z,11.90
2018-06-25T03:18:03.453Z,11.90
2018-06-25T03:23:00.257Z,11.90
2018-06-25T03:27:56.725Z,12.00
2018-06-25T03:30:25.068Z,12.00
2018-06-25T03:32:53.547Z,12.00
2018-06-25T03:35:22.565Z,12.00
2018-06-25T03:37:50.761Z,12.00
2018-06-25T03:40:19.850Z,12.00
2018-06-25T03:45:16.165Z,12.10
2018-06-25T03:47:44.353Z,12.10
2018-06-25T03:50:12.639Z,12.10
2018-06-25T03:57:37.113Z,12.10
2018-06-25T04:00:05.635Z,12.10
2018-06-25T04:02:34.141Z,12.00
2018-06-25T04:05:02.945Z,12.10
2018-06-25T04:07:32.261Z,12.10
2018-06-25T04:14:57.150Z,12.20
2018-06-25T04:17:25.581Z,12.20
2018-06-25T04:19:53.684Z,12.30
2018-06-25T04:22:21.840Z,12.30
2018-06-25T04:27:18.210Z,12.30
2018-06-25T04:29:46.532Z,12.30
2018-06-25T04:34:43.314Z,12.40
2018-06-25T04:37:11.821Z,12.40
2018-06-25T04:44:36.525Z,12.50
2018-06-25T04:47:05.077Z,12.60
2018-06-25T04:49:33.532Z,12.70
2018-06-25T04:52:01.912Z,12.70
2018-06-25T05:04:23.350Z,12.60
2018-06-25T05:06:52.094Z,12.60
2018-06-25T05:09:20.516Z,12.60
2018-06-25T05:14:17.214Z,12.60
2018-06-25T05:16:45.815Z,12.60
2018-06-25T05:19:14.204Z,12.70
2018-06-25T05:31:35.560Z,13.20
2018-06-25T05:34:03.897Z,13.30
2018-06-25T05:36:32.163Z,13.40
2018-06-25T05:39:00.453Z,13.50
2018-06-25T05:41:29.097Z,13.50
2018-06-25T05:43:57.513Z,13.50
2018-06-25T05:46:25.885Z,13.50
2018-06-25T05:51:22.587Z,13.50
2018-06-25T05:53:51.094Z,13.70
2018-06-25T05:56:20.005Z,14.00
2018-06-25T05:58:48.670Z,14.10
2018-06-25T06:01:17.090Z,14.20
2018-06-25T06:03:45.612Z,14.20
2018-06-25T06:06:13.858Z,14.30
2018-06-25T06:08:42.320Z,14.30
2018-06-25T06:11:11.130Z,14.60
2018-06-25T06:13:39.220Z,14.80
2018-06-25T06:16:07.434Z,15.00
2018-06-25T06:18:35.822Z,15.30
2018-06-25T06:21:04.302Z,15.60
2018-06-25T06:30:57.293Z,17.90
2018-06-25T06:33:25.810Z,19.30
2018-06-25T06:35:54.211Z,20.00
2018-06-25T06:38:23.159Z,20.20
2018-06-25T06:40:51.595Z,19.80
2018-06-25T06:45:48.608Z,18.80
2018-06-25T06:50:45.097Z,18.00
2018-06-25T06:55:42.399Z,17.90
2018-06-25T07:00:39.123Z,18.00
2018-06-25T07:03:07.388Z,17.90
2018-06-25T07:05:35.788Z,17.80
2018-06-25T07:08:04.179Z,17.80
2018-06-25T07:10:32.476Z,17.80
2018-06-25T07:13:01.006Z,17.90
2018-06-25T07:15:29.610Z,18.00
2018-06-25T07:17:58.428Z,18.10
2018-06-25T07:20:26.708Z,18.10
2018-06-25T07:25:23.314Z,17.40
2018-06-25T07:27:51.760Z,16.90
2018-06-25T07:30:19.941Z,16.40
2018-06-25T07:32:48.490Z,15.90
2018-06-25T07:35:16.904Z,15.50
2018-06-25T07:40:13.504Z,14.80
2018-06-25T07:42:41.880Z,14.60
2018-06-25T07:45:10.305Z,14.40
2018-06-25T07:50:06.999Z,14.10
2018-06-25T07:52:35.196Z,14.00
2018-06-25T07:55:03.595Z,14.00
2018-06-25T07:57:32.507Z,13.90
2018-06-25T08:04:57.251Z,13.80
2018-06-25T08:07:25.525Z,13.80
2018-06-25T08:09:53.868Z,13.90
2018-06-25T08:12:22.061Z,13.90
2018-06-25T08:14:50.354Z,14.00
2018-06-25T08:17:18.768Z,14.00
2018-06-25T08:27:11.462Z,14.00
2018-06-25T08:29:40.500Z,14.10
2018-06-25T08:34:37.173Z,14.30
2018-06-25T08:37:05.724Z,14.30
2018-06-25T08:39:34.069Z,14.30
2018-06-25T08:44:30.956Z,14.40
2018-06-25T08:51:55.475Z,14.80
2018-06-25T08:54:23.844Z,15.00
2018-06-25T08:59:20.852Z,15.30
2018-06-25T09:06:45.530Z,16.00
2018-06-25T09:09:14.158Z,16.20
2018-06-25T09:11:42.656Z,16.40
2018-06-25T09:14:11.319Z,16.60
2018-06-25T09:16:39.762Z,16.70
2018-06-25T09:21:36.439Z,16.60
2018-06-25T09:24:05.989Z,16.60
2018-06-25T09:26:41.228Z,16.50
2018-06-25T09:29:10.798Z,16.40
2018-06-25T09:31:39.257Z,16.30
2018-06-25T09:35:11.307Z,16.20
2018-06-25T09:37:39.863Z,16.30
2018-06-25T09:40:08.738Z,16.30
2018-06-25T09:42:37.131Z,16.40
2018-06-25T09:45:06.294Z,16.50
2018-06-25T09:54:59.092Z,17.40
2018-06-25T09:57:27.674Z,17.70
2018-06-25T10:04:52.478Z,18.20
2018-06-25T10:09:49.599Z,18.10
2018-06-25T10:12:18.179Z,17.90
2018-06-25T10:17:14.654Z,17.40
2018-06-25T10:19:42.971Z,17.20
2018-06-25T10:24:39.283Z,16.70
2018-06-25T10:27:07.688Z,16.60
2018-06-25T10:29:36.244Z,16.50
2018-06-25T10:32:04.563Z,16.50
2018-06-25T10:37:00.846Z,16.40
2018-06-25T10:39:30.037Z,16.50
2018-06-25T10:41:58.472Z,16.50
2018-06-25T10:44:27.281Z,16.70
2018-06-25T10:46:55.785Z,16.90
2018-06-25T10:49:24.281Z,17.10
2018-06-25T10:54:20.763Z,17.70
2018-06-25T10:56:48.963Z,17.90
2018-06-25T11:01:45.405Z,18.20
2018-06-25T11:04:13.749Z,18.30
2018-06-25T11:09:10.937Z,18.60
2018-06-25T11:14:07.455Z,18.80
2018-06-25T11:19:03.834Z,19.00
2018-06-25T11:21:32.231Z,19.10
2018-06-25T11:26:28.843Z,19.30
2018-06-25T11:28:57.227Z,19.30
2018-06-25T11:31:25.735Z,19.30
2018-06-25T11:36:21.929Z,19.50
2018-06-25T11:38:50.237Z,19.60
2018-06-25T11:41:18.829Z,19.70
2018-06-25T11:43:47.746Z,19.80
2018-06-25T11:46:16.245Z,19.90
2018-06-25T11:51:13.050Z,20.10
2018-06-25T11:53:41.754Z,20.20
2018-06-25T11:56:10.251Z,20.40
2018-06-25T12:01:07.124Z,20.50
2018-06-25T12:03:35.548Z,20.40
2018-06-25T12:08:32.044Z,20.30
2018-06-25T12:11:01.023Z,20.30
2018-06-25T12:15:58.547Z,19.90
2018-06-25T12:18:27.177Z,19.70
2018-06-25T12:20:55.685Z,19.70
2018-06-25T12:23:24.052Z,19.60
2018-06-25T12:25:52.286Z,19.40
2018-06-25T12:28:20.662Z,19.40
2018-06-25T12:35:46.235Z,19.60
2018-06-25T12:38:14.681Z,19.80
2018-06-25T12:40:43.270Z,20.00
2018-06-25T12:43:11.711Z,20.20
2018-06-25T12:45:39.840Z,20.40
2018-06-25T12:48:08.076Z,20.50
2018-06-25T12:53:04.566Z,20.70
2018-06-25T12:58:01.058Z,20.70
2018-06-25T13:00:29.571Z,20.80
2018-06-25T13:02:57.944Z,20.80
2018-06-25T13:05:26.640Z,20.80
2018-06-25T13:07:55.179Z,21.00
2018-06-25T13:10:23.569Z,21.10
2018-06-25T13:12:51.933Z,21.00
2018-06-25T13:15:20.446Z,20.90
2018-06-25T13:17:49.155Z,20.90
2018-06-25T13:20:17.683Z,20.80
2018-06-25T13:22:45.883Z,20.90
2018-06-25T13:25:14.061Z,20.90
2018-06-25T13:30:10.751Z,20.60
2018-06-25T13:32:39.083Z,20.60
2018-06-25T13:35:07.651Z,20.70
2018-06-25T13:40:05.163Z,21.00
2018-06-25T13:42:33.665Z,21.20
2018-06-25T13:47:30.282Z,21.50
2018-06-25T13:49:58.656Z,21.40
2018-06-25T13:54:55.272Z,21.00
2018-06-25T13:57:23.879Z,20.80
2018-06-25T13:59:52.177Z,20.60
2018-06-25T14:04:48.806Z,20.70
2018-06-25T14:07:18.177Z,20.80
2018-06-25T14:12:14.887Z,20.90
2018-06-25T14:14:43.393Z,20.90
2018-06-25T14:17:12.186Z,21.00
2018-06-25T14:24:42.423Z,21.10
2018-06-25T14:27:11.625Z,20.90
2018-06-25T14:29:40.005Z,20.80
2018-06-25T14:32:44.327Z,20.80
2018-06-25T14:40:11.405Z,21.20
2018-06-25T14:42:39.850Z,21.20
2018-06-25T14:47:36.436Z,21.40
2018-06-25T14:50:04.903Z,21.50
2018-06-25T14:52:33.400Z,21.50
2018-06-25T14:55:01.815Z,21.50
2018-06-25T14:57:30.281Z,21.40
2018-06-25T14:59:59.071Z,21.30
2018-06-25T15:02:27.681Z,21.10
2018-06-25T15:04:56.236Z,20.80
2018-06-25T15:07:24.452Z,20.60
2018-06-25T15:09:52.569Z,20.50
2018-06-25T15:14:49.265Z,20.50
2018-06-25T15:17:17.679Z,20.50
2018-06-25T15:19:46.161Z,20.50
2018-06-25T15:22:14.649Z,20.60
2018-06-25T15:27:10.944Z,20.40
2018-06-25T15:32:07.619Z,20.00
2018-06-25T15:34:36.078Z,19.90
2018-06-25T15:37:04.446Z,19.70
2018-06-25T15:39:33.450Z,19.60
2018-06-25T15:42:02.193Z,19.50
2018-06-25T15:44:30.848Z,19.60
2018-06-25T15:46:59.380Z,19.50
2018-06-25T15:49:27.795Z,19.60
2018-06-25T15:51:56.069Z,19.60
2018-06-25T15:54:25.104Z,19.60
2018-06-25T15:56:53.486Z,19.50
2018-06-25T15:59:21.875Z,19.50
2018-06-25T16:01:50.330Z,19.40
2018-06-25T16:04:18.875Z,19.40
2018-06-25T16:09:15.440Z,19.40
2018-06-25T16:11:43.975Z,19.50
2018-06-25T16:14:12.273Z,19.60
2018-06-25T16:19:09.259Z,19.50
2018-06-25T16:21:37.999Z,19.60
2018-06-25T16:24:06.496Z,19.70
2018-06-25T16:29:03.916Z,19.70
2018-06-25T16:31:32.513Z,19.70
2018-06-25T16:36:29.019Z,19.60
2018-06-25T16:38:57.420Z,19.50
2018-06-25T16:41:26.112Z,19.40
2018-06-25T16:43:54.446Z,19.40
2018-06-25T16:46:23.118Z,19.50
2018-06-25T16:48:51.376Z,19.60
2018-06-25T16:51:19.928Z,19.70
2018-06-25T16:53:48.330Z,19.80
2018-06-25T16:56:16.492Z,19.90
2018-06-25T16:58:45.017Z,20.00
2018-06-25T17:01:14.026Z,20.00
2018-06-25T17:03:42.529Z,20.00
2018-06-25T17:08:39.089Z,19.80
2018-06-25T17:11:07.521Z,19.80
2018-06-25T17:16:04.848Z,19.80
2018-06-25T17:18:34.224Z,19.80
2018-06-25T17:23:30.782Z,19.60
2018-06-25T17:25:59.471Z,19.50
2018-06-25T17:28:27.640Z,19.50
2018-06-25T17:30:55.896Z,19.50
2018-06-25T17:33:24.366Z,19.40
2018-06-25T17:35:52.730Z,19.40
2018-06-25T17:38:22.373Z,19.40
2018-06-25T17:40:51.146Z,19.40
2018-06-25T17:43:19.462Z,19.40
2018-06-25T17:48:17.032Z,19.20
2018-06-25T17:50:45.600Z,19.20
2018-06-25T17:53:13.989Z,19.00
2018-06-25T17:58:10.593Z,18.90
2018-06-25T18:00:39.096Z,18.80
2018-06-25T18:03:07.497Z,18.70
2018-06-25T18:05:35.822Z,18.60
2018-06-25T18:08:05.150Z,18.50
2018-06-25T18:10:33.620Z,18.40
2018-06-25T18:13:02.216Z,18.30
2018-06-25T18:15:30.604Z,18.20
2018-06-25T18:20:27.372Z,18.00
2018-06-25T18:22:55.940Z,17.90
2018-06-25T18:25:24.416Z,17.90
2018-06-25T18:27:53.134Z,17.70
2018-06-25T18:30:21.428Z,17.70
2018-06-25T18:32:49.805Z,17.60
2018-06-25T18:35:18.098Z,17.50
2018-06-25T18:37:46.316Z,17.40
2018-06-25T18:45:12.171Z,17.10
2018-06-25T18:47:40.834Z,17.00
2018-06-25T18:50:10.840Z,16.90
2018-06-25T18:52:39.435Z,16.80
2018-06-25T18:55:08.109Z,16.70
2018-06-25T18:57:36.461Z,16.60
2018-06-25T19:02:34.055Z,16.30
2018-06-25T19:05:03.467Z,16.20
2018-06-25T19:07:31.792Z,16.00
2018-06-25T19:10:00.243Z,15.80
2018-06-25T19:12:28.498Z,15.70
2018-06-25T19:17:25.223Z,15.40
2018-06-25T19:19:54.088Z,15.20
2018-06-25T19:22:22.620Z,15.10
2018-06-25T19:24:52.262Z,15.00
2018-06-25T19:27:22.080Z,14.90
2018-06-25T19:29:50.465Z,14.70
2018-06-25T19:32:18.960Z,14.60
2018-06-25T19:34:47.482Z,14.50
2018-06-25T19:37:15.700Z,14.40
2018-06-25T19:39:43.772Z,14.20
2018-06-25T19:42:12.877Z,14.10
2018-06-25T19:44:41.329Z,14.00
2018-06-25T19:47:10.081Z,13.90
2018-06-25T19:52:06.674Z,13.80
2018-06-25T19:57:03.485Z,13.70
2018-06-25T19:59:31.880Z,13.60
2018-06-25T20:04:28.485Z,13.50
2018-06-25T20:06:56.947Z,13.40
2018-06-25T20:09:25.264Z,13.30
2018-06-25T20:11:53.555Z,13.30
2018-06-25T20:14:21.694Z,13.30
2018-06-25T20:16:49.872Z,13.20
2018-06-25T20:19:18.427Z,13.20
2018-06-25T20:21:46.719Z,13.20
2018-06-25T20:24:15.376Z,13.20
2018-06-25T20:26:43.561Z,13.20
2018-06-25T20:31:40.423Z,13.30
2018-06-25T20:34:10.401Z,13.30
2018-06-25T20:36:38.679Z,13.30
2018-06-25T20:41:36.423Z,13.30
2018-06-25T20:44:05.062Z,13.30
2018-06-25T20:46:33.923Z,13.30
2018-06-25T20:49:02.243Z,13.30
2018-06-25T20:51:30.832Z,13.40
2018-06-25T20:53:59.433Z,13.30
2018-06-25T21:03:52.115Z,13.10
2018-06-25T21:06:20.412Z,13.00
2018-06-25T21:08:48.900Z,12.90
2018-06-25T21:11:17.520Z,12.90
2018-06-25T21:13:45.922Z,12.80
2018-06-25T21:16:14.522Z,12.80
2018-06-25T21:21:11.593Z,12.70
2018-06-25T21:23:39.825Z,12.70
2018-06-25T21:28:36.306Z,12.60
2018-06-25T21:33:32.895Z,12.60
2018-06-25T21:38:29.339Z,12.50
2018-06-25T21:40:57.809Z,12.60
2018-06-25T21:43:26.107Z,12.50
2018-06-25T21:45:54.387Z,12.50
2018-06-25T21:50:50.875Z,12.60
2018-06-25T21:58:15.255Z,12.50
2018-06-25T22:03:16.780Z,12.50
2018-06-25T22:05:46.077Z,12.50
2018-06-25T22:08:14.596Z,12.40
2018-06-25T22:13:11.381Z,12.40
2018-06-25T22:15:40.522Z,12.30
2018-06-25T22:18:09.325Z,12.30
2018-06-25T22:20:37.929Z,12.30
2018-06-25T22:23:06.389Z,12.30
2018-06-25T22:25:34.706Z,12.20
2018-06-25T22:30:31.288Z,12.20
2018-06-25T22:32:59.581Z,12.20
2018-06-25T22:35:28.002Z,12.30
2018-06-25T22:37:56.281Z,12.30
2018-06-25T22:40:24.595Z,12.40
2018-06-25T22:47:49.172Z,12.50
2018-06-25T22:50:17.570Z,12.60
2018-06-25T22:52:45.889Z,12.60
2018-06-25T22:55:14.146Z,12.70
2018-06-25T22:57:42.480Z,12.70
2018-06-25T23:00:12.024Z,12.80
2018-06-25T23:02:40.794Z,12.80
2018-06-25T23:05:09.186Z,12.90
2018-06-25T23:07:37.490Z,13.00
2018-06-25T23:10:05.684Z,13.00
2018-06-25T23:12:34.312Z,13.10
2018-06-25T23:19:58.769Z,13.20
2018-06-25T23:22:27.279Z,13.20
2018-06-25T23:24:55.670Z,13.20
2018-06-25T23:27:23.975Z,13.30
2018-06-25T23:29:52.279Z,13.30
2018-06-25T23:34:49.361Z,13.30
2018-06-25T23:37:18.313Z,13.30
2018-06-25T23:42:15.196Z,13.30
2018-06-25T23:49:39.878Z,13.40
2018-06-25T23:52:08.215Z,13.40
2018-06-25T23:54:36.596Z,13.50
2018-06-25T23:59:33.089Z,13.40
